createdAt,value
2022-12-03T00:00:55.711Z,41.28
2022-12-03T00:05:57.085Z,41.92
2022-12-03T00:10:58.466Z,42.10
2022-12-03T00:15:59.880Z,41.38
2022-12-03T00:21:01.288Z,37.13
2022-12-03T00:26:02.722Z,43.28
2022-12-03T00:31:04.308Z,42.17
2022-12-03T00:36:06.139Z,37.83
2022-12-03T00:41:07.558Z,37.30
2022-12-03T00:46:09.007Z,38.45
2022-12-03T00:51:10.411Z,43.67
2022-12-03T00:56:11.828Z,40.97
2022-12-03T01:01:13.351Z,39.03
2022-12-03T01:06:14.788Z,39.17
2022-12-03T01:11:34.836Z,37.63
2022-12-03T01:16:36.633Z,38.17
2022-12-03T01:21:38.200Z,39.15
2022-12-03T01:26:39.782Z,37.83
2022-12-03T01:31:59.603Z,38.15
2022-12-03T01:37:00.995Z,39.08
2022-12-03T01:42:02.947Z,37.65
2022-12-03T01:47:07.179Z,38.70
2022-12-03T01:52:32.243Z,36.70
2022-12-03T01:57:50.060Z,41.67
2022-12-03T02:02:57.736Z,40.45
2022-12-03T02:08:00.023Z,38.85
2022-12-03T02:13:03.483Z,35.07
2022-12-03T02:18:05.698Z,36.83
2022-12-03T02:23:13.078Z,36.35
2022-12-03T02:28:14.699Z,36.78
2022-12-03T02:33:16.242Z,36.20
2022-12-03T02:38:21.394Z,39.92
2022-12-03T02:43:24.054Z,39.10
2022-12-03T02:48:33.471Z,38.17
2022-12-03T02:53:42.126Z,39.97
2022-12-03T02:58:46.865Z,35.80
2022-12-03T03:03:49.710Z,37.58
2022-12-03T03:08:51.632Z,34.42
2022-12-03T03:13:53.115Z,38.30
2022-12-03T03:18:54.810Z,36.42
2022-12-03T03:23:56.247Z,41.22
2022-12-03T03:28:59.902Z,37.58
2022-12-03T03:34:01.375Z,38.22
2022-12-03T03:39:05.095Z,36.72
2022-12-03T03:44:08.186Z,35.75
2022-12-03T03:49:10.473Z,35.40
2022-12-03T03:54:12.475Z,39.77
2022-12-03T03:59:14.491Z,35.28
2022-12-03T04:04:20.702Z,39.28
2022-12-03T04:09:22.164Z,38.83
2022-12-03T04:14:23.562Z,34.08
2022-12-03T04:19:24.935Z,39.70
2022-12-03T04:24:26.392Z,34.78
2022-12-03T04:29:27.768Z,36.58
2022-12-03T04:34:48.270Z,38.35
2022-12-03T04:39:49.756Z,41.33
2022-12-03T04:44:51.247Z,35.53
2022-12-03T04:49:52.811Z,36.22
2022-12-03T04:54:54.477Z,37.80
2022-12-03T04:59:55.968Z,34.75
2022-12-03T05:04:58.243Z,35.93
2022-12-03T05:09:59.651Z,37.58
2022-12-03T05:15:01.043Z,37.35
2022-12-03T05:20:21.074Z,32.75
2022-12-03T05:25:22.429Z,33.45
2022-12-03T05:30:23.875Z,36.28
2022-12-03T05:35:26.128Z,32.78
2022-12-03T05:40:27.519Z,35.15
2022-12-03T05:45:32.534Z,34.25
2022-12-03T05:50:36.100Z,32.58
2022-12-03T05:55:48.391Z,37.70
2022-12-03T06:00:49.755Z,34.80
2022-12-03T06:05:51.116Z,34.20
2022-12-03T06:10:52.562Z,32.30
2022-12-03T06:15:53.972Z,36.10
2022-12-03T06:20:55.364Z,35.40
2022-12-03T06:25:56.798Z,41.88
2022-12-03T06:30:58.297Z,37.10
2022-12-03T06:35:59.731Z,37.03
2022-12-03T06:41:01.091Z,32.42
2022-12-03T06:46:02.526Z,35.83
2022-12-03T06:51:04.058Z,32.47
2022-12-03T06:56:05.783Z,36.28
2022-12-03T07:01:07.211Z,31.48
2022-12-03T07:06:08.767Z,36.83
2022-12-03T07:11:30.230Z,33.65
2022-12-03T07:16:31.655Z,33.67
2022-12-03T07:21:33.206Z,36.95
2022-12-03T07:26:34.592Z,35.25
2022-12-03T07:31:36.087Z,32.60
2022-12-03T07:36:37.647Z,35.50
2022-12-03T07:41:39.107Z,36.50
2022-12-03T07:46:40.930Z,34.50
2022-12-03T07:51:44.014Z,38.53
2022-12-03T07:56:45.370Z,37.03
2022-12-03T08:01:46.771Z,43.03
2022-12-03T08:06:48.702Z,35.90
2022-12-03T08:11:50.085Z,35.17
2022-12-03T08:16:51.504Z,35.95
2022-12-03T08:21:57.988Z,35.28
2022-12-03T08:27:02.427Z,38.13
2022-12-03T08:32:06.674Z,131.45
2022-12-03T08:37:18.727Z,38.53
2022-12-03T08:42:43.857Z,33.15
2022-12-03T08:47:45.400Z,33.10
2022-12-03T08:52:46.771Z,34.70
2022-12-03T08:57:48.258Z,35.88
2022-12-03T09:02:52.354Z,40.33
2022-12-03T09:07:53.881Z,49.17
2022-12-03T09:12:55.433Z,42.00
2022-12-03T09:17:56.883Z,36.70
2022-12-03T09:22:58.257Z,37.78
2022-12-03T09:27:59.692Z,39.38
2022-12-03T09:33:01.932Z,42.10
2022-12-03T09:38:03.469Z,35.73
2022-12-03T09:43:05.881Z,39.05
2022-12-03T09:48:07.488Z,38.73
2022-12-03T09:53:14.454Z,35.25
2022-12-03T09:58:18.210Z,42.67
2022-12-03T10:03:29.697Z,43.85
2022-12-03T10:56:52.419Z,44.38
2022-12-03T11:01:54.057Z,44.17
2022-12-03T11:06:55.624Z,44.55
2022-12-03T11:12:04.807Z,43.47
2022-12-03T11:17:07.811Z,49.40
2022-12-03T11:22:12.166Z,46.50
2022-12-03T11:27:19.110Z,52.25
2022-12-03T11:32:38.886Z,52.65
2022-12-03T11:38:36.600Z,63.80
2022-12-03T11:43:53.382Z,61.70
2022-12-03T11:48:57.527Z,56.25
2022-12-03T11:54:00.403Z,54.30
2022-12-03T11:59:04.305Z,52.88
2022-12-03T12:04:07.127Z,52.92
2022-12-03T12:09:08.659Z,48.97
2022-12-03T12:14:12.380Z,52.90
2022-12-03T12:19:32.267Z,49.92
2022-12-03T12:24:46.783Z,53.55
2022-12-03T12:29:54.967Z,58.38
2022-12-03T12:35:12.331Z,51.60
2022-12-03T12:40:15.746Z,54.17
2022-12-03T12:45:20.351Z,62.88
2022-12-03T12:50:21.722Z,59.58
2022-12-03T12:55:24.348Z,46.47
2022-12-03T13:00:25.759Z,52.80
2022-12-03T13:05:38.445Z,52.80
2022-12-03T13:10:41.815Z,54.47
2022-12-03T13:16:01.585Z,52.03
2022-12-03T13:21:23.192Z,53.15
2022-12-03T13:26:39.511Z,46.60
2022-12-03T13:31:47.724Z,50.72
2022-12-03T13:36:57.001Z,49.72
2022-12-03T13:42:38.186Z,48.35
2022-12-03T13:47:49.890Z,46.55
2022-12-03T13:52:52.779Z,49.47
2022-12-03T13:57:55.114Z,47.15
2022-12-03T14:02:56.481Z,47.40
2022-12-03T14:07:58.223Z,43.85
2022-12-03T14:12:59.754Z,41.17
2022-12-03T14:18:02.208Z,48.35
2022-12-03T14:23:03.589Z,41.87
2022-12-03T14:28:08.521Z,46.70
2022-12-03T14:33:09.926Z,44.13
2022-12-03T14:38:11.294Z,40.60
2022-12-03T14:43:12.763Z,40.65
2022-12-03T14:48:14.131Z,43.25
2022-12-03T14:53:15.492Z,39.00
2022-12-03T14:58:16.877Z,37.67
2022-12-03T15:03:18.794Z,35.70
2022-12-03T15:15:20.356Z,38.63
2022-12-03T15:20:21.761Z,42.80
2022-12-03T15:25:25.496Z,31.88
2022-12-03T15:30:27.037Z,33.40
2022-12-03T15:35:30.149Z,31.20
2022-12-03T15:40:31.692Z,33.17
2022-12-03T15:45:33.703Z,25.95
2022-12-03T15:50:39.963Z,31.23
2022-12-03T15:55:41.756Z,28.73
2022-12-03T16:00:43.120Z,28.52
2022-12-03T16:05:44.485Z,27.60
2022-12-03T16:10:45.979Z,28.00
2022-12-03T16:15:47.533Z,31.00
2022-12-03T16:20:49.082Z,27.60
2022-12-03T16:25:50.523Z,33.38
2022-12-03T16:30:51.979Z,27.98
2022-12-03T16:35:53.414Z,26.05
2022-12-03T16:40:54.831Z,27.48
2022-12-03T16:45:56.506Z,27.60
2022-12-03T16:50:57.997Z,26.35
2022-12-03T16:55:59.382Z,29.45
2022-12-03T17:01:00.751Z,28.05
2022-12-03T17:06:02.872Z,27.45
2022-12-03T17:11:04.465Z,27.15
2022-12-03T17:16:06.852Z,29.35
2022-12-03T17:21:08.352Z,25.63
2022-12-03T17:26:09.753Z,26.75
2022-12-03T17:31:11.925Z,27.17
2022-12-03T17:36:13.364Z,31.73
2022-12-03T17:41:14.787Z,29.92
2022-12-03T17:46:16.177Z,30.67
2022-12-03T17:51:19.158Z,26.67
2022-12-03T17:56:20.658Z,30.77
2022-12-03T18:01:22.038Z,34.10
2022-12-03T18:06:23.812Z,29.17
2022-12-03T18:11:27.270Z,27.10
2022-12-03T18:16:29.186Z,27.98
2022-12-03T18:21:30.648Z,29.67
2022-12-03T18:26:32.038Z,30.63
2022-12-03T18:31:33.553Z,30.67
2022-12-03T18:36:36.275Z,27.30
2022-12-03T18:41:37.646Z,38.50
2022-12-03T18:46:54.447Z,34.38
2022-12-03T18:51:59.513Z,29.52
2022-12-03T18:57:01.277Z,28.85
2022-12-03T19:02:03.321Z,30.10
2022-12-03T19:07:04.946Z,30.65
2022-12-03T19:12:14.234Z,28.33
2022-12-03T19:17:16.074Z,33.00
2022-12-03T19:22:17.456Z,29.23
2022-12-03T19:27:19.086Z,28.00
2022-12-03T19:32:20.454Z,26.60
2022-12-03T19:37:21.814Z,30.75
2022-12-03T19:42:23.170Z,28.65
2022-12-03T19:47:24.618Z,38.13
2022-12-03T19:52:26.059Z,33.03
2022-12-03T19:57:28.195Z,26.95
2022-12-03T20:02:29.770Z,26.52
2022-12-03T20:07:31.298Z,25.33
2022-12-03T20:12:32.906Z,25.55
2022-12-03T20:17:34.324Z,27.25
2022-12-03T20:22:35.719Z,26.05
2022-12-03T20:27:37.107Z,27.98
2022-12-03T20:32:43.698Z,26.77
2022-12-03T20:37:46.766Z,26.77
2022-12-03T20:42:48.282Z,28.35
2022-12-03T20:47:49.731Z,23.65
2022-12-03T20:53:16.155Z,23.90
2022-12-03T20:58:12.636Z,24.00
2022-12-03T21:03:14.059Z,21.95
2022-12-03T21:08:15.511Z,24.60
2022-12-03T21:13:18.146Z,23.48
2022-12-03T21:18:19.507Z,23.63
2022-12-03T21:23:20.887Z,22.95
2022-12-03T21:28:22.269Z,28.40
2022-12-03T21:33:23.667Z,28.42
2022-12-03T21:38:25.866Z,29.58
2022-12-03T21:43:28.285Z,29.80
2022-12-03T21:48:29.696Z,43.33
2022-12-03T21:53:32.711Z,38.58
2022-12-03T21:58:34.443Z,35.20
2022-12-03T22:03:35.796Z,36.85
2022-12-03T22:08:37.492Z,41.00
2022-12-03T22:13:40.104Z,40.38
2022-12-03T22:18:41.786Z,56.90
2022-12-03T22:23:43.435Z,90.45
2022-12-03T22:28:47.188Z,160.63
2022-12-03T22:33:49.520Z,51.60
2022-12-03T22:38:51.043Z,133.10
2022-12-03T22:43:52.624Z,141.55
2022-12-03T22:48:54.041Z,177.35
2022-12-03T22:53:56.982Z,132.75
2022-12-03T22:58:59.311Z,239.57
2022-12-03T23:04:01.479Z,97.67
2022-12-03T23:09:04.468Z,142.50
2022-12-03T23:14:05.865Z,241.50
2022-12-03T23:19:07.407Z,397.10
2022-12-03T23:24:10.027Z,476.02
2022-12-03T23:29:11.410Z,373.40
2022-12-03T23:34:12.821Z,214.00
2022-12-03T23:39:14.263Z,209.27
2022-12-03T23:44:15.651Z,357.40
2022-12-03T23:49:17.043Z,319.42
2022-12-03T23:54:18.416Z,364.05
2022-12-03T23:59:19.788Z,374.48
